Time;durP1;ratioP1;P1;durP2;ratioP2;P2;SDS_P1;SDS_P2;PMS_P1;PMS_P2;Temp;Humidity;BMP_temperature;BMP_pressure;BME280_temperature;BME280_humidity;BME280_pressure;Samples;Min_cycle;Max_cycle;Signal;HPM_P1;HPM_P2
2022/08/11 00:01:46;;;;;;;7.33;6.07;;;19.30;99.90;;;;;;5017233;28;20318;-70
2022/08/11 00:04:14;;;;;;;6.50;5.77;;;19.30;99.90;;;;;;5031538;28;20284;-69
2022/08/11 00:06:42;;;;;;;9.63;5.23;;;19.30;99.90;;;;;;5031564;28;20302;-70
2022/08/11 00:09:11;;;;;;;8.73;5.87;;;19.30;99.90;;;;;;5031524;28;20223;-70
2022/08/11 00:11:41;;;;;;;7.47;5.50;;;19.30;99.90;;;;;;5025882;28;20204;-70
2022/08/11 00:14:16;;;;;;;7.57;5.43;;;19.20;99.90;;;;;;5011975;28;20641;-70
2022/08/11 00:16:52;;;;;;;7.63;5.67;;;19.20;99.90;;;;;;5012074;28;20286;-70
2022/08/11 00:19:22;;;;;;;8.47;6.27;;;19.20;99.90;;;;;;5021677;28;20209;-70
2022/08/11 00:21:50;;;;;;;6.73;5.90;;;19.20;99.90;;;;;;5028925;28;20601;-70
2022/08/11 00:24:18;;;;;;;10.10;6.83;;;19.10;99.90;;;;;;5011666;28;20294;-69
2022/08/11 00:26:48;;;;;;;8.80;6.27;;;19.10;99.90;;;;;;5012135;28;20206;-69
2022/08/11 00:29:17;;;;;;;10.33;6.67;;;19.00;99.90;;;;;;5012198;28;20216;-70
2022/08/11 00:31:49;;;;;;;8.53;6.73;;;19.00;99.90;;;;;;5012457;28;20214;-70
2022/08/11 00:34:18;;;;;;;7.53;6.00;;;19.00;99.90;;;;;;5015880;28;20191;-70
2022/08/11 00:36:50;;;;;;;6.83;6.00;;;18.90;99.90;;;;;;5015991;28;20330;-71
2022/08/11 00:39:20;;;;;;;8.27;6.50;;;19.00;99.90;;;;;;5015340;28;20188;-70
2022/08/11 00:42:05;;;;;;;11.77;5.83;;;19.00;99.90;;;;;;5015765;28;20294;-70
2022/08/11 00:44:43;;;;;;;9.13;6.07;;;19.00;99.90;;;;;;5015685;28;20669;-70
2022/08/11 00:47:19;;;;;;;9.67;6.93;;;18.90;99.90;;;;;;5015345;28;20248;-70
2022/08/11 00:49:57;;;;;;;7.23;6.20;;;18.80;99.90;;;;;;5015440;28;20678;-71
2022/08/11 00:52:39;;;;;;;8.50;6.30;;;18.80;99.90;;;;;;5015820;28;20205;-70
2022/08/11 00:55:50;;;;;;;7.57;6.03;;;18.80;99.90;;;;;;5015083;28;20219;-69
2022/08/11 00:59:03;;;;;;;7.13;5.93;;;18.90;99.90;;;;;;4996285;28;20229;-70
2022/08/11 01:01:49;;;;;;;10.97;6.50;;;18.90;99.90;;;;;;5015447;28;20257;-71
2022/08/11 01:04:39;;;;;;;9.47;6.60;;;18.90;99.90;;;;;;5015456;28;20595;-70
2022/08/11 01:07:32;;;;;;;8.20;5.80;;;18.80;99.90;;;;;;5015050;28;20261;-71
2022/08/11 01:10:11;;;;;;;10.03;6.30;;;18.80;99.90;;;;;;5015307;28;20558;-69
2022/08/11 01:12:55;;;;;;;8.20;6.53;;;18.80;99.90;;;;;;5014782;28;20285;-69
2022/08/11 01:15:53;;;;;;;7.77;6.40;;;18.80;99.90;;;;;;5014993;28;20649;-70
2022/08/11 01:19:00;;;;;;;9.13;6.83;;;18.70;99.90;;;;;;5014649;28;20187;-70
2022/08/11 01:22:06;;;;;;;9.40;6.83;;;18.60;99.90;;;;;;4973359;28;20216;-71
2022/08/11 01:24:57;;;;;;;9.40;7.20;;;18.40;99.90;;;;;;4978049;28;20212;-70
2022/08/11 01:27:56;;;;;;;9.93;6.77;;;18.30;99.90;;;;;;5007670;28;20248;-70
2022/08/11 01:30:55;;;;;;;10.80;6.97;;;18.20;99.90;;;;;;5014792;28;20691;-70
2022/08/11 01:34:04;;;;;;;9.90;7.10;;;18.20;99.90;;;;;;5014501;28;20198;-70
2022/08/11 01:36:58;;;;;;;9.57;7.20;;;18.10;99.90;;;;;;4972104;28;20230;-70
2022/08/11 01:40:07;;;;;;;9.03;7.50;;;18.00;99.90;;;;;;5014166;28;20194;-69
2022/08/11 01:46:02;;;;;;;11.33;7.30;;;17.80;99.90;;;;;;4980778;28;20205;-72
2022/08/11 01:48:37;;;;;;;10.87;7.03;;;17.80;99.90;;;;;;5014477;28;20708;-70
2022/08/11 01:51:17;;;;;;;9.47;7.00;;;17.80;99.90;;;;;;5013968;28;20210;-70
2022/08/11 01:53:56;;;;;;;9.90;6.87;;;17.80;99.90;;;;;;5013906;28;20283;-70
2022/08/11 01:56:49;;;;;;;10.23;7.33;;;17.70;99.90;;;;;;5014083;28;20268;-70
2022/08/11 01:59:20;;;;;;;7.83;6.33;;;17.70;99.90;;;;;;5014261;28;20618;-70
2022/08/11 02:02:44;;;;;;;8.67;6.70;;;17.70;99.90;;;;;;5014552;28;20240;-70
2022/08/11 02:05:20;;;;;;;9.20;6.33;;;17.70;99.90;;;;;;5013841;28;20684;-69
2022/08/11 02:07:56;;;;;;;7.37;6.00;;;17.80;99.90;;;;;;5013941;28;20248;-70
2022/08/11 02:13:23;;;;;;;8.50;6.03;;;17.80;99.90;;;;;;5013933;28;20189;-69
2022/08/11 02:15:55;;;;;;;7.57;6.17;;;17.80;99.90;;;;;;5013836;28;20243;-70
2022/08/11 02:23:38;;;;;;;9.00;6.33;;;17.80;99.90;;;;;;5024308;28;20251;-68
2022/08/11 02:24:16;;;;;;;8.10;6.47;;;17.70;99.90;;;;;;4994125;28;20205;-70
2022/08/11 02:26:47;;;;;;;7.90;6.37;;;17.70;99.90;;;;;;4994093;28;20605;-70
2022/08/11 02:29:20;;;;;;;6.73;5.83;;;17.60;99.90;;;;;;4993971;28;20191;-70
2022/08/11 02:34:55;;;;;;;10.27;6.53;;;17.60;99.90;;;;;;5000756;28;20329;-69
2022/08/11 02:37:28;;;;;;;11.80;6.63;;;17.50;99.90;;;;;;5013223;28;20240;-70
2022/08/11 02:40:10;;;;;;;8.17;5.80;;;17.50;99.90;;;;;;5013123;28;20280;-69
2022/08/11 02:42:50;;;;;;;8.30;5.47;;;17.50;99.90;;;;;;5013392;28;20195;-71
2022/08/11 02:45:34;;;;;;;9.67;6.77;;;17.50;99.90;;;;;;5013200;28;20662;-70
2022/08/11 02:51:01;;;;;;;8.47;5.97;;;17.50;99.90;;;;;;5012762;28;20341;-69
2022/08/11 02:53:37;;;;;;;10.40;6.40;;;17.60;99.90;;;;;;5032548;28;20205;-69
2022/08/11 02:56:12;;;;;;;6.80;6.10;;;17.60;99.90;;;;;;5032523;28;20231;-69
2022/08/11 02:59:48;;;;;;;10.73;5.97;;;17.60;99.90;;;;;;5032728;28;20322;-70
2022/08/11 03:01:44;;;;;;;10.53;6.37;;;17.60;99.90;;;;;;5032243;28;20230;-69
2022/08/11 03:04:18;;;;;;;13.23;6.77;;;17.50;99.90;;;;;;5033016;28;20558;-71
2022/08/11 03:06:52;;;;;;;7.43;5.70;;;17.50;99.90;;;;;;5032815;28;20282;-70
2022/08/11 03:09:25;;;;;;;11.30;5.60;;;17.50;99.90;;;;;;5031904;28;20631;-68
2022/08/11 03:17:42;;;;;;;8.07;5.83;;;17.50;99.90;;;;;;5012544;28;20196;-70
2022/08/11 03:20:28;;;;;;;9.23;6.07;;;17.50;99.90;;;;;;5011869;28;20288;-70
2022/08/11 03:23:03;;;;;;;7.93;5.50;;;17.50;99.90;;;;;;5012570;28;20278;-70
2022/08/11 03:25:36;;;;;;;9.60;5.90;;;17.50;99.90;;;;;;5012664;28;20647;-71
2022/08/11 03:28:15;;;;;;;10.23;6.83;;;17.50;99.90;;;;;;5012780;28;20279;-70
2022/08/11 03:30:52;;;;;;;9.00;6.57;;;17.40;99.90;;;;;;5012298;28;20297;-70
2022/08/11 03:36:17;;;;;;;6.47;5.77;;;17.30;99.90;;;;;;5012002;28;20700;-70
2022/08/11 03:39:05;;;;;;;7.43;5.90;;;17.20;99.90;;;;;;5012384;28;20194;-70
2022/08/11 03:41:45;;;;;;;8.03;5.47;;;17.20;99.90;;;;;;5012515;28;20656;-71
2022/08/11 03:44:25;;;;;;;6.87;5.13;;;17.20;99.90;;;;;;5012301;28;20287;-71
2022/08/11 03:47:16;;;;;;;7.20;5.50;;;17.20;99.90;;;;;;5012066;28;20196;-70
2022/08/11 03:50:00;;;;;;;9.10;5.30;;;17.20;99.90;;;;;;5010050;28;20215;-71
2022/08/11 03:52:42;;;;;;;6.10;5.30;;;17.20;99.90;;;;;;5010381;28;20205;-69
2022/08/11 03:55:15;;;;;;;6.63;5.30;;;17.20;99.90;;;;;;5011997;28;20196;-71
2022/08/11 03:58:10;;;;;;;8.53;5.50;;;17.30;99.90;;;;;;5012321;28;20364;-70
2022/08/11 04:01:14;;;;;;;8.60;5.57;;;17.30;99.90;;;;;;5012050;28;20281;-70
2022/08/11 04:03:57;;;;;;;8.00;5.80;;;17.30;99.90;;;;;;5012200;28;20197;-70
2022/08/11 04:07:12;;;;;;;7.83;5.77;;;17.40;99.90;;;;;;5012024;28;20203;-69
2022/08/11 04:10:22;;;;;;;8.87;5.80;;;17.40;99.90;;;;;;5002476;28;20697;-72
2022/08/11 04:13:29;;;;;;;7.27;5.60;;;17.50;99.90;;;;;;5010727;28;20300;-70
2022/08/11 04:16:14;;;;;;;9.87;5.87;;;17.50;99.90;;;;;;5016421;28;20713;-71
2022/08/11 04:19:15;;;;;;;7.50;5.67;;;17.50;99.90;;;;;;5016051;28;20226;-72
2022/08/11 04:22:10;;;;;;;8.00;5.77;;;17.50;99.90;;;;;;5016385;28;20277;-72
2022/08/11 04:25:04;;;;;;;8.00;5.57;;;17.50;99.90;;;;;;5015033;28;20210;-72
2022/08/11 04:28:08;;;;;;;8.33;5.93;;;17.60;99.90;;;;;;5007592;28;20298;-70
2022/08/11 04:30:51;;;;;;;9.07;6.90;;;17.60;99.90;;;;;;5000081;28;20312;-72
2022/08/11 04:33:41;;;;;;;9.53;6.10;;;17.70;99.90;;;;;;5013708;28;20311;-70
2022/08/11 04:37:30;;;;;;;9.40;5.60;;;17.70;99.90;;;;;;5015329;28;20632;-71
2022/08/11 04:39:27;;;;;;;8.13;5.70;;;17.70;99.90;;;;;;5015345;28;20217;-72
2022/08/11 04:45:42;;;;;;;7.13;5.70;;;17.70;99.90;;;;;;5015751;28;20274;-71
2022/08/11 05:03:44;;;;;;;9.23;5.83;;;17.90;99.90;;;;;;5005036;28;20209;-69
2022/08/11 05:06:50;;;;;;;8.40;6.27;;;18.00;99.90;;;;;;5015407;28;20265;-70
2022/08/11 05:09:35;;;;;;;8.30;6.10;;;17.90;99.90;;;;;;5014902;28;20202;-70
2022/08/11 05:12:36;;;;;;;8.23;6.10;;;17.90;99.90;;;;;;5015065;28;20233;-70
2022/08/11 05:35:06;;;;;;;9.15;7.30;;;18.30;99.90;;;;;;5008341;28;20508;-71
2022/08/11 05:57:06;;;;;;;8.23;6.90;;;18.50;99.90;;;;;;5013686;28;20725;-71
2022/08/11 05:59:34;;;;;;;11.57;8.93;;;18.60;99.90;;;;;;5013839;28;20298;-72
2022/08/11 06:02:03;;;;;;;11.47;9.17;;;18.60;99.90;;;;;;5013897;28;20215;-71
2022/08/11 06:04:30;;;;;;;11.83;8.40;;;18.60;99.90;;;;;;5013861;28;20298;-70
2022/08/11 06:07:01;;;;;;;10.80;8.00;;;18.70;99.90;;;;;;5013982;28;20582;-71
2022/08/11 06:09:31;;;;;;;9.30;7.03;;;18.70;99.90;;;;;;5013794;28;20558;-71
2022/08/11 06:12:02;;;;;;;12.70;9.27;;;18.70;99.90;;;;;;5015752;28;20318;-74
2022/08/11 06:14:30;;;;;;;8.53;7.47;;;18.70;99.90;;;;;;5014061;28;20296;-69
2022/08/11 06:17:00;;;;;;;7.77;6.97;;;18.70;99.90;;;;;;5013812;28;20206;-70
2022/08/11 06:19:35;;;;;;;9.03;7.03;;;18.70;99.90;;;;;;5013833;28;20242;-69
2022/08/11 06:22:04;;;;;;;11.10;7.93;;;18.80;99.90;;;;;;5013733;28;20680;-69
2022/08/11 06:24:32;;;;;;;10.10;7.40;;;18.80;99.90;;;;;;5009066;28;20214;-71
2022/08/11 06:27:00;;;;;;;10.83;8.53;;;18.70;99.90;;;;;;5008540;28;20238;-71
2022/08/11 06:29:28;;;;;;;11.33;7.50;;;18.70;99.90;;;;;;5013299;28;20299;-70
2022/08/11 06:32:00;;;;;;;10.80;8.23;;;18.70;99.90;;;;;;5013231;28;20233;-71
2022/08/11 06:34:35;;;;;;;9.33;7.60;;;18.70;99.90;;;;;;5013497;28;20196;-71
2022/08/11 06:37:17;;;;;;;12.80;7.70;;;18.80;99.90;;;;;;5010350;28;20666;-71
2022/08/11 06:39:51;;;;;;;13.23;8.30;;;18.80;99.90;;;;;;5012465;28;20580;-71
2022/08/11 06:42:34;;;;;;;9.40;7.97;;;18.80;99.90;;;;;;5012616;28;20257;-71
2022/08/11 06:45:08;;;;;;;10.20;7.73;;;18.80;99.90;;;;;;5004784;28;20206;-70
2022/08/11 06:47:41;;;;;;;10.37;8.33;;;18.80;99.90;;;;;;4993563;28;20231;-70
2022/08/11 06:52:53;;;;;;;15.87;11.33;;;18.90;99.90;;;;;;4995797;28;20203;-71
2022/08/11 07:00:56;;;;;;;10.57;8.60;;;19.10;99.90;;;;;;5013188;28;20190;-70
2022/08/11 07:03:28;;;;;;;10.13;7.87;;;19.10;99.90;;;;;;5012668;28;20204;-72
2022/08/11 07:06:02;;;;;;;11.17;7.37;;;19.10;99.90;;;;;;5013044;28;20282;-72
2022/08/11 07:28:54;;;;;;;9.33;7.13;;;19.20;99.90;;;;;;5011268;28;20210;-71
2022/08/11 07:28:57;;;;;;;9.90;6.67;;;19.40;99.90;;;;;;5013121;28;20187;-71
2022/08/11 07:31:30;;;;;;;8.70;6.93;;;19.30;99.90;;;;;;5012775;28;20230;-71
2022/08/11 07:34:05;;;;;;;8.77;7.40;;;19.30;99.90;;;;;;5012710;28;20194;-70
2022/08/11 07:36:37;;;;;;;11.47;7.60;;;19.20;99.90;;;;;;5011321;28;20242;-71
2022/08/11 07:39:04;;;;;;;9.77;7.50;;;19.20;99.90;;;;;;5011289;28;20234;-73
2022/08/11 07:41:34;;;;;;;10.10;7.97;;;19.10;99.90;;;;;;5012023;28;20219;-71
2022/08/11 07:44:08;;;;;;;10.97;7.73;;;19.10;99.90;;;;;;5012591;28;20204;-71
2022/08/11 07:52:32;;;;;;;8.97;7.60;;;19.00;99.90;;;;;;5012205;28;20235;-71
2022/08/11 07:55:01;;;;;;;9.37;7.03;;;19.10;99.90;;;;;;5010407;28;20734;-72
2022/08/11 08:19:33;;;;;;;8.47;6.70;;;19.40;99.90;;;;;;5012012;28;20267;-70
2022/08/11 08:22:01;;;;;;;8.40;7.50;;;19.40;99.90;;;;;;5010938;28;20744;-69
2022/08/11 08:24:31;;;;;;;8.90;7.47;;;19.40;99.90;;;;;;5012153;28;20211;-70
2022/08/11 08:26:59;;;;;;;10.00;7.57;;;19.40;99.90;;;;;;5010984;28;20203;-71
2022/08/11 08:32:15;;;;;;;9.50;6.67;;;19.40;99.90;;;;;;5011885;28;20582;-71
2022/08/11 08:34:42;;;;;;;7.63;6.20;;;19.50;99.90;;;;;;5010994;28;20244;-71
2022/08/11 08:37:09;;;;;;;7.13;6.43;;;19.50;99.90;;;;;;5011691;28;20239;-71
2022/08/11 08:39:38;;;;;;;7.30;6.40;;;19.60;99.90;;;;;;5009365;28;20207;-71
2022/08/11 08:42:10;;;;;;;7.13;5.87;;;19.60;99.90;;;;;;5011467;28;20209;-72
2022/08/11 08:44:42;;;;;;;7.83;6.23;;;19.70;99.90;;;;;;5011809;28;20195;-71
2022/08/11 08:47:14;;;;;;;8.63;6.30;;;19.70;99.90;;;;;;5011474;28;20199;-71
2022/08/11 08:49:48;;;;;;;7.97;6.67;;;19.70;99.90;;;;;;5010967;28;20834;-71
2022/08/11 08:52:18;;;;;;;7.47;6.47;;;19.80;99.90;;;;;;5011586;28;20230;-71
2022/08/11 08:54:52;;;;;;;8.47;6.80;;;19.80;99.90;;;;;;5015508;28;20697;-70
2022/08/11 08:57:21;;;;;;;9.83;6.43;;;19.80;99.90;;;;;;5014795;28;20206;-70
2022/08/11 08:59:50;;;;;;;8.23;6.00;;;19.90;99.90;;;;;;5014742;28;20576;-72
2022/08/11 09:02:19;;;;;;;10.27;6.33;;;19.90;99.90;;;;;;5015235;28;20201;-71
2022/08/11 09:04:47;;;;;;;8.23;5.93;;;19.90;99.90;;;;;;5013547;28;21824;-70
2022/08/11 09:07:17;;;;;;;8.50;6.60;;;19.90;99.90;;;;;;5016207;28;20299;-72
2022/08/11 09:09:49;;;;;;;6.67;5.73;;;19.90;99.90;;;;;;5034270;28;20218;-70
2022/08/11 09:12:19;;;;;;;6.13;5.50;;;19.90;99.90;;;;;;5033681;28;20219;-72
2022/08/11 09:15:02;;;;;;;6.03;5.40;;;20.00;99.90;;;;;;5034285;28;20217;-70
2022/08/11 09:17:33;;;;;;;7.33;5.60;;;20.10;99.90;;;;;;5034932;28;20228;-70
2022/08/11 09:20:03;;;;;;;7.33;5.60;;;20.20;99.90;;;;;;5015463;28;20573;-71
2022/08/11 09:28:10;;;;;;;4.80;4.40;;;20.40;99.90;;;;;;5028791;28;20204;-70
2022/08/11 09:30:37;;;;;;;5.50;4.23;;;20.40;99.90;;;;;;5034517;28;20260;-70
2022/08/11 09:33:05;;;;;;;4.90;4.27;;;20.40;99.90;;;;;;5019145;28;20312;-72
2022/08/11 09:35:37;;;;;;;6.90;4.90;;;20.50;99.90;;;;;;5014255;28;20337;-71
2022/08/11 09:40:52;;;;;;;8.07;3.97;;;20.60;99.90;;;;;;5001926;28;20218;-70
2022/08/11 09:46:16;;;;;;;5.67;4.50;;;20.60;99.90;;;;;;4973264;28;20275;-72
2022/08/11 09:48:46;;;;;;;5.47;4.40;;;20.70;99.90;;;;;;5005014;28;20289;-71
2022/08/11 09:51:15;;;;;;;6.13;4.30;;;20.70;99.90;;;;;;5013546;28;20666;-71
2022/08/11 09:53:44;;;;;;;5.23;4.73;;;20.60;99.90;;;;;;5010865;28;20281;-71
2022/08/11 09:59:03;;;;;;;7.53;5.87;;;20.60;99.90;;;;;;5012356;28;20218;-71
2022/08/11 10:01:32;;;;;;;8.03;5.43;;;20.60;99.90;;;;;;5014376;28;20210;-70
2022/08/11 10:04:03;;;;;;;6.70;5.57;;;20.60;99.90;;;;;;5015945;28;20297;-70
2022/08/11 10:09:19;;;;;;;6.80;5.30;;;20.40;99.90;;;;;;5015764;28;20212;-71
2022/08/11 10:11:48;;;;;;;5.83;5.20;;;20.40;99.90;;;;;;5015772;28;20215;-69
2022/08/11 10:17:06;;;;;;;6.80;5.60;;;20.30;99.90;;;;;;5016996;28;20193;-71
2022/08/11 10:19:35;;;;;;;6.87;5.20;;;20.30;99.90;;;;;;5013811;28;20257;-71
2022/08/11 10:27:35;;;;;;;7.83;5.47;;;20.40;99.90;;;;;;4994241;28;20219;-72
2022/08/11 10:35:33;;;;;;;7.90;5.40;;;20.70;99.90;;;;;;5013369;28;20765;-72
2022/08/11 10:38:01;;;;;;;7.37;4.80;;;20.80;99.90;;;;;;5013129;28;20217;-71
2022/08/11 10:40:28;;;;;;;6.87;5.33;;;20.80;99.90;;;;;;5012132;28;20209;-73
2022/08/11 10:43:12;;;;;;;6.80;5.50;;;20.90;99.90;;;;;;5012100;28;20222;-71
2022/08/11 10:48:27;;;;;;;6.13;5.40;;;21.00;99.90;;;;;;5013401;28;20242;-73
2022/08/11 10:51:16;;;;;;;6.10;5.50;;;21.00;99.90;;;;;;5013823;28;20299;-73
2022/08/11 10:59:19;;;;;;;6.67;5.97;;;21.20;99.90;;;;;;5013594;28;20193;-72
2022/08/11 11:01:46;;;;;;;6.20;5.37;;;21.20;99.90;;;;;;5011743;28;20317;-71
2022/08/11 11:04:16;;;;;;;6.23;5.17;;;21.30;99.90;;;;;;5010137;28;20650;-70
2022/08/11 11:06:55;;;;;;;6.67;6.07;;;21.40;99.90;;;;;;5013255;28;20728;-71
2022/08/11 11:09:28;;;;;;;7.93;5.80;;;21.40;99.90;;;;;;5012011;28;20732;-71
2022/08/11 11:20:24;;;;;;;8.47;5.87;;;21.60;99.90;;;;;;5010979;28;20684;-74
2022/08/11 11:22:56;;;;;;;7.43;5.93;;;21.70;99.90;;;;;;5012560;28;20199;-72
2022/08/11 11:26:05;;;;;;;6.50;5.90;;;21.80;99.90;;;;;;5013152;28;20245;-72
2022/08/11 11:28:47;;;;;;;7.23;6.47;;;21.80;99.90;;;;;;5011768;28;20218;-73
2022/08/11 11:31:27;;;;;;;7.20;6.50;;;21.80;99.90;;;;;;5012424;28;20278;-72
2022/08/11 11:34:12;;;;;;;6.57;5.87;;;21.90;99.90;;;;;;5013388;28;20278;-71
2022/08/11 11:36:45;;;;;;;7.17;6.37;;;21.80;99.90;;;;;;5012716;28;20659;-71
2022/08/11 11:39:13;;;;;;;8.23;6.00;;;21.80;99.90;;;;;;5012049;28;20298;-70
2022/08/11 11:41:42;;;;;;;9.47;6.63;;;21.80;99.90;;;;;;5010415;28;20617;-71
2022/08/11 11:44:13;;;;;;;8.27;6.40;;;21.80;99.90;;;;;;5010573;28;20734;-70
2022/08/11 11:46:44;;;;;;;6.80;6.10;;;21.80;99.90;;;;;;5012540;28;20277;-70
2022/08/11 11:49:12;;;;;;;7.17;6.10;;;21.90;99.90;;;;;;5012355;28;20188;-70
2022/08/11 11:51:39;;;;;;;8.60;6.53;;;22.00;99.90;;;;;;5012927;28;20303;-70
2022/08/11 11:54:09;;;;;;;9.03;6.53;;;22.10;99.90;;;;;;5011958;28;20230;-70
2022/08/11 11:56:37;;;;;;;7.77;6.27;;;22.10;99.90;;;;;;5012680;28;20685;-70
2022/08/11 12:01:51;;;;;;;7.00;6.10;;;22.30;99.90;;;;;;5011120;28;20234;-72
2022/08/11 12:04:21;;;;;;;8.37;6.70;;;22.30;99.90;;;;;;5012450;28;20208;-71
2022/08/11 12:06:48;;;;;;;6.57;5.53;;;22.40;99.90;;;;;;5012265;28;20210;-71
2022/08/11 12:09:17;;;;;;;7.33;6.30;;;22.50;99.90;;;;;;5012070;28;20250;-72
2022/08/11 12:14:30;;;;;;;7.57;6.47;;;22.60;99.90;;;;;;5012515;28;20314;-73
2022/08/11 12:16:59;;;;;;;8.97;6.27;;;22.60;99.90;;;;;;5012734;28;20303;-72
2022/08/11 12:19:28;;;;;;;7.73;6.03;;;22.60;99.90;;;;;;5012263;28;20299;-76
2022/08/11 12:27:27;;;;;;;8.43;7.07;;;22.80;99.90;;;;;;5012321;28;20200;-72
2022/08/11 12:29:56;;;;;;;8.77;7.30;;;22.80;99.90;;;;;;5016270;28;20298;-70
2022/08/11 12:32:28;;;;;;;9.30;7.37;;;22.80;99.90;;;;;;5016116;28;20275;-72
2022/08/11 12:34:56;;;;;;;7.37;6.30;;;22.80;99.90;;;;;;5015991;28;20199;-72
2022/08/11 12:37:29;;;;;;;8.43;6.80;;;22.80;99.90;;;;;;5015904;28;20332;-74
2022/08/11 12:45:32;;;;;;;8.43;6.67;;;22.80;99.90;;;;;;5014714;28;20691;-71
2022/08/11 12:53:46;;;;;;;8.53;7.17;;;23.10;99.90;;;;;;4995939;28;20286;-72
2022/08/11 13:07:17;;;;;;;8.63;7.40;;;23.30;99.90;;;;;;5016663;28;20289;-71
2022/08/11 13:09:46;;;;;;;11.53;7.63;;;23.40;99.90;;;;;;5018526;28;20213;-70
2022/08/11 13:15:00;;;;;;;8.83;7.93;;;23.50;99.90;;;;;;5015740;28;20197;-72
2022/08/11 13:17:28;;;;;;;7.93;7.17;;;23.70;99.90;;;;;;5015637;28;20299;-70
2022/08/11 13:19:59;;;;;;;8.20;7.23;;;23.80;99.90;;;;;;5015230;28;20289;-71
2022/08/11 13:22:27;;;;;;;8.00;7.20;;;23.80;99.90;;;;;;5018097;28;20645;-71
2022/08/11 13:24:55;;;;;;;8.57;6.37;;;23.90;99.90;;;;;;5014317;28;20301;-70
2022/08/11 13:27:23;;;;;;;8.03;7.23;;;23.90;99.90;;;;;;5014014;28;20723;-71
2022/08/11 13:31:09;;;;;;;7.70;6.90;;;23.90;99.90;;;;;;5015038;28;20213;-71
2022/08/11 13:32:39;;;;;;;8.23;6.97;;;24.00;99.90;;;;;;5016637;28;20286;-73
2022/08/11 13:35:09;;;;;;;8.50;7.20;;;24.00;99.90;;;;;;5014678;28;20263;-72
2022/08/11 13:37:36;;;;;;;8.13;7.20;;;23.90;99.90;;;;;;5014684;28;20700;-72
2022/08/11 13:40:04;;;;;;;8.83;6.70;;;23.90;99.90;;;;;;5012579;28;20291;-71
2022/08/11 13:42:32;;;;;;;8.57;7.67;;;23.80;99.90;;;;;;5019305;28;20209;-70
2022/08/11 13:44:59;;;;;;;10.50;7.57;;;23.80;99.90;;;;;;5014482;28;20261;-71
2022/08/11 13:47:27;;;;;;;9.17;7.57;;;23.80;99.90;;;;;;4996933;28;20302;-72
2022/08/11 13:49:55;;;;;;;8.43;7.03;;;23.80;99.90;;;;;;5014242;28;20209;-71
2022/08/11 13:52:25;;;;;;;8.83;7.60;;;23.80;99.90;;;;;;5013571;28;20238;-71
2022/08/11 13:54:53;;;;;;;8.93;8.00;;;23.80;99.90;;;;;;5017230;28;20307;-72
2022/08/11 13:57:21;;;;;;;9.87;8.30;;;23.70;99.90;;;;;;5014377;28;20215;-70
2022/08/11 13:59:54;;;;;;;12.43;7.57;;;23.80;99.90;;;;;;5014985;28;20202;-71
2022/08/11 14:02:28;;;;;;;10.33;8.33;;;23.70;99.90;;;;;;5013316;28;20733;-72
2022/08/11 14:04:57;;;;;;;10.43;8.30;;;23.70;99.90;;;;;;5013470;28;20217;-71
2022/08/11 14:07:33;;;;;;;9.30;8.23;;;23.80;99.90;;;;;;5005641;28;20204;-71
2022/08/11 14:10:00;;;;;;;10.97;7.90;;;23.80;99.90;;;;;;5014002;28;20245;-71
2022/08/11 14:15:18;;;;;;;11.17;8.77;;;23.90;99.90;;;;;;5014164;28;20186;-72
2022/08/11 14:17:48;;;;;;;9.30;8.17;;;23.90;99.90;;;;;;5014493;28;20194;-71
2022/08/11 14:20:18;;;;;;;11.97;7.80;;;24.00;99.90;;;;;;5014168;28;20300;-71
2022/08/11 14:22:46;;;;;;;9.00;8.10;;;24.00;99.90;;;;;;5014513;28;20262;-70
2022/08/11 14:25:15;;;;;;;12.20;9.93;;;24.10;99.90;;;;;;5012729;28;20213;-73
2022/08/11 14:27:44;;;;;;;11.67;9.20;;;24.10;99.90;;;;;;5014905;28;20206;-71
2022/08/11 14:30:53;;;;;;;9.60;8.70;;;24.20;99.90;;;;;;5013813;28;20213;-72
2022/08/11 14:33:01;;;;;;;9.47;8.57;;;24.20;99.90;;;;;;5013511;28;20236;-72
2022/08/11 14:35:28;;;;;;;10.53;8.63;;;24.20;99.90;;;;;;5010309;28;20217;-71
2022/08/11 14:37:59;;;;;;;11.80;8.97;;;24.10;99.90;;;;;;5013573;28;20561;-71
2022/08/11 14:48:41;;;;;;;10.10;8.97;;;24.10;99.90;;;;;;5013843;28;20206;-71
2022/08/11 14:51:11;;;;;;;11.23;9.40;;;24.10;99.90;;;;;;5022527;28;20277;-72
2022/08/11 14:53:40;;;;;;;13.23;9.07;;;24.10;99.90;;;;;;5014040;28;20705;-70
2022/08/11 14:58:52;;;;;;;10.90;9.60;;;24.10;99.90;;;;;;5012159;28;20594;-70
2022/08/11 15:04:16;;;;;;;11.73;8.93;;;24.00;99.90;;;;;;4991429;28;20211;-73
2022/08/11 15:06:43;;;;;;;11.83;8.63;;;24.10;99.90;;;;;;5007872;28;20224;-71
2022/08/11 15:09:11;;;;;;;10.13;8.90;;;24.20;99.90;;;;;;5012170;28;20300;-72
2022/08/11 15:17:09;;;;;;;11.03;9.30;;;24.00;99.90;;;;;;5012623;28;20328;-70
2022/08/11 15:24:17;;;;;;;12.83;9.63;;;24.00;99.90;;;;;;5012872;28;20201;-72
2022/08/11 15:25:12;;;;;;;9.60;8.70;;;23.90;99.90;;;;;;5014531;28;20208;-71
2022/08/11 15:38:46;;;;;;;12.20;9.10;;;23.90;99.90;;;;;;4999855;28;20217;-71
2022/08/11 15:46:52;;;;;;;10.77;9.40;;;23.90;99.90;;;;;;5009619;28;20259;-71
2022/08/11 15:49:23;;;;;;;14.13;11.30;;;23.90;99.90;;;;;;5012533;28;20235;-72
2022/08/11 15:51:56;;;;;;;15.23;12.80;;;23.90;99.90;;;;;;5012354;28;20627;-71
2022/08/11 15:54:27;;;;;;;11.90;9.53;;;23.90;99.90;;;;;;5010941;28;20241;-70
2022/08/11 15:57:00;;;;;;;12.73;9.90;;;23.90;99.90;;;;;;5010465;28;20617;-72
2022/08/11 16:05:08;;;;;;;12.40;11.10;;;23.80;99.90;;;;;;5011835;28;20185;-71
2022/08/11 16:07:37;;;;;;;10.33;9.33;;;23.70;99.90;;;;;;5011656;28;20220;-71
2022/08/11 16:10:08;;;;;;;14.57;10.57;;;23.80;99.90;;;;;;5011794;28;20252;-72
2022/08/11 16:12:40;;;;;;;14.67;9.80;;;23.80;99.90;;;;;;5013989;28;20209;-74
2022/08/11 16:18:00;;;;;;;14.13;11.45;;;23.80;99.90;;;;;;5006412;28;20726;-72
2022/08/11 16:20:29;;;;;;;14.77;10.83;;;23.80;99.90;;;;;;5013464;28;20623;-73
2022/08/11 16:22:59;;;;;;;14.03;10.57;;;23.80;99.90;;;;;;5012291;28;20298;-74
2022/08/11 16:25:27;;;;;;;12.43;9.13;;;23.80;99.90;;;;;;5012234;28;20191;-75
2022/08/11 16:27:58;;;;;;;12.68;9.43;;;23.80;99.90;;;;;;5013513;28;20211;-73
2022/08/11 16:30:27;;;;;;;13.40;10.47;;;23.80;99.90;;;;;;5010435;28;20625;-74
2022/08/11 16:32:54;;;;;;;12.40;10.00;;;23.70;99.90;;;;;;5013285;28;20299;-74
2022/08/11 16:40:57;;;;;;;12.10;10.07;;;23.60;99.90;;;;;;5007873;28;20201;-77
2022/08/11 16:49:10;;;;;;;11.13;10.00;;;23.50;99.90;;;;;;5012333;28;20186;-74
2022/08/11 16:51:37;;;;;;;12.27;9.70;;;23.50;99.90;;;;;;5011524;28;20293;-74
2022/08/11 16:54:04;;;;;;;13.67;11.47;;;23.50;99.90;;;;;;5012210;28;20341;-74
2022/08/11 16:56:37;;;;;;;10.70;9.60;;;23.40;99.90;;;;;;5012515;28;20240;-74
2022/08/11 16:59:13;;;;;;;14.07;9.97;;;23.30;99.90;;;;;;5009352;28;20217;-76
2022/08/11 17:01:45;;;;;;;13.40;10.73;;;23.30;99.90;;;;;;5010999;28;20775;-75
2022/08/11 17:21:05;;;;;;;11.23;9.80;;;23.00;99.90;;;;;;5017228;28;20215;-73
2022/08/11 17:23:49;;;;;;;13.97;10.33;;;23.00;99.90;;;;;;5014692;28;20205;-75
2022/08/11 17:26:22;;;;;;;12.87;10.40;;;23.00;99.90;;;;;;5012081;28;20196;-75
2022/08/11 17:28:52;;;;;;;11.83;9.83;;;22.90;99.90;;;;;;5015890;28;20190;-78
2022/08/11 17:36:54;;;;;;;12.20;10.07;;;22.90;99.90;;;;;;5013428;28;20743;-75
2022/08/11 17:39:27;;;;;;;12.03;10.17;;;22.90;99.90;;;;;;5015696;28;20610;-77
2022/08/11 17:50:14;;;;;;;15.63;12.10;;;22.90;99.90;;;;;;5015227;28;20290;-76
2022/08/11 18:01:03;;;;;;;13.63;11.00;;;22.70;99.90;;;;;;5014269;28;20613;-74
2022/08/11 18:03:38;;;;;;;13.00;10.20;;;22.80;99.90;;;;;;5014227;28;20258;-73
2022/08/11 18:06:07;;;;;;;22.43;17.50;;;22.70;99.90;;;;;;5017613;28;20718;-74
